createdAt,value
2022-10-05T00:02:26.625Z,77.20
2022-10-05T00:06:11.393Z,77.20
2022-10-05T00:09:58.872Z,77.20
2022-10-05T00:13:41.608Z,77.20
2022-10-05T00:17:25.698Z,77.20
2022-10-05T00:21:27.697Z,77.20
2022-10-05T00:25:17.869Z,77.10
2022-10-05T00:29:02.233Z,77.10
2022-10-05T00:32:44.921Z,77.10
2022-10-05T00:36:26.873Z,77.10
2022-10-05T00:40:37.370Z,77.20
2022-10-05T00:44:30.818Z,77.10
2022-10-05T00:48:47.610Z,77.10
2022-10-05T00:52:55.081Z,77.10
2022-10-05T00:56:49.054Z,77.10
2022-10-05T01:00:37.061Z,77.10
2022-10-05T01:04:43.904Z,77.20
2022-10-05T01:08:56.998Z,77.30
2022-10-05T01:13:28.186Z,77.40
2022-10-05T01:17:20.651Z,77.50
2022-10-05T01:21:16.793Z,77.50
2022-10-05T01:25:33.942Z,77.60
2022-10-05T01:29:22.807Z,77.70
2022-10-05T01:33:33.906Z,77.90
2022-10-05T01:37:39.305Z,78.00
2022-10-05T01:41:30.027Z,78.00
2022-10-05T01:45:27.058Z,78.10
2022-10-05T01:49:37.222Z,78.20
2022-10-05T01:53:47.863Z,78.40
2022-10-05T01:57:40.676Z,78.40
2022-10-05T02:01:41.708Z,78.40
2022-10-05T02:05:52.399Z,78.50
2022-10-05T02:09:40.877Z,78.50
2022-10-05T02:13:29.532Z,78.40
2022-10-05T02:17:17.936Z,78.50
2022-10-05T02:21:02.380Z,78.60
2022-10-05T02:24:53.129Z,78.50
2022-10-05T02:28:52.666Z,78.60
2022-10-05T02:32:48.026Z,78.80
2022-10-05T02:36:35.412Z,78.90
2022-10-05T02:40:33.967Z,78.70
2022-10-05T02:44:29.262Z,78.90
2022-10-05T02:48:38.577Z,78.90
2022-10-05T02:52:44.694Z,79.00
2022-10-05T02:56:58.754Z,79.10
2022-10-05T03:00:48.138Z,79.10
2022-10-05T03:05:13.606Z,79.00
2022-10-05T03:09:09.602Z,79.20
2022-10-05T03:13:15.668Z,79.30
2022-10-05T03:17:10.884Z,79.20
2022-10-05T03:21:21.395Z,79.20
2022-10-05T03:25:40.842Z,79.20
2022-10-05T03:29:37.651Z,79.20
2022-10-05T03:33:25.639Z,79.20
2022-10-05T03:37:34.811Z,79.20
2022-10-05T03:41:28.538Z,79.50
2022-10-05T03:45:16.225Z,79.30
2022-10-05T03:49:01.216Z,79.40
2022-10-05T03:52:52.278Z,79.50
2022-10-05T03:56:41.331Z,79.70
2022-10-05T04:00:24.252Z,79.60
2022-10-05T04:04:11.558Z,79.70
2022-10-05T04:07:59.787Z,79.70
2022-10-05T04:12:11.960Z,79.60
2022-10-05T04:16:23.134Z,79.70
2022-10-05T04:20:37.282Z,79.80
2022-10-05T04:24:31.071Z,79.80
2022-10-05T04:28:41.820Z,79.80
2022-10-05T04:32:30.384Z,80.10
2022-10-05T04:36:31.974Z,80.00
2022-10-05T04:40:30.524Z,80.30
2022-10-05T04:44:50.013Z,80.40
2022-10-05T04:48:58.755Z,80.50
2022-10-05T04:53:00.689Z,80.80
2022-10-05T04:56:47.751Z,80.80
2022-10-05T05:00:49.142Z,80.80
2022-10-05T05:05:09.549Z,81.30
2022-10-05T05:08:56.934Z,81.60
2022-10-05T05:12:53.427Z,81.60
2022-10-05T05:16:41.850Z,82.20
2022-10-05T05:20:39.893Z,82.40
2022-10-05T05:24:30.831Z,82.70
2022-10-05T05:28:39.193Z,83.10
2022-10-05T05:32:30.099Z,83.30
2022-10-05T05:36:37.981Z,83.40
2022-10-05T05:40:28.341Z,83.60
2022-10-05T05:44:13.270Z,83.90
2022-10-05T05:47:58.833Z,83.70
2022-10-05T05:51:48.569Z,83.90
2022-10-05T05:55:35.696Z,84.50
2022-10-05T05:59:24.762Z,84.50
2022-10-05T06:03:22.480Z,84.70
2022-10-05T06:07:05.868Z,85.40
2022-10-05T06:10:53.077Z,84.70
2022-10-05T06:14:47.228Z,84.90
2022-10-05T06:18:31.900Z,84.90
2022-10-05T06:22:31.955Z,84.70
2022-10-05T06:26:22.645Z,84.90
2022-10-05T06:30:10.198Z,84.60
2022-10-05T06:33:53.806Z,84.40
2022-10-05T06:37:35.628Z,84.20
2022-10-05T06:41:35.914Z,84.20
2022-10-05T06:45:31.350Z,84.20
2022-10-05T06:49:27.660Z,84.00
2022-10-05T06:53:28.108Z,83.90
2022-10-05T06:57:24.759Z,83.70
2022-10-05T07:01:33.565Z,83.60
2022-10-05T07:05:53.645Z,83.40
2022-10-05T07:09:44.399Z,83.40
2022-10-05T07:13:47.395Z,83.50
2022-10-05T07:17:38.732Z,83.80
2022-10-05T07:21:27.347Z,83.80
2022-10-05T07:25:21.065Z,83.60
2022-10-05T07:29:33.742Z,83.30
2022-10-05T07:33:24.298Z,83.10
2022-10-05T07:37:32.549Z,83.00
2022-10-05T07:41:20.185Z,82.80
2022-10-05T07:45:28.140Z,82.40
2022-10-05T07:49:21.959Z,82.10
2022-10-05T07:53:32.881Z,81.80
2022-10-05T07:57:24.143Z,81.40
2022-10-05T08:01:14.832Z,81.10
2022-10-05T08:05:12.041Z,80.70
2022-10-05T08:09:00.698Z,80.60
2022-10-05T08:13:19.659Z,80.40
2022-10-05T08:17:12.756Z,80.10
2022-10-05T08:20:58.840Z,80.00
2022-10-05T08:24:53.561Z,79.80
2022-10-05T08:28:53.650Z,79.60
2022-10-05T08:32:42.415Z,79.90
2022-10-05T08:36:43.734Z,79.50
2022-10-05T08:40:39.448Z,79.30
2022-10-05T08:44:40.844Z,79.30
2022-10-05T08:48:31.988Z,78.80
2022-10-05T08:52:32.502Z,78.60
2022-10-05T08:56:19.740Z,78.40
2022-10-05T09:00:29.393Z,78.00
2022-10-05T09:04:21.479Z,77.40
2022-10-05T09:08:51.398Z,77.50
2022-10-05T09:12:53.481Z,77.50
2022-10-05T09:17:04.680Z,77.60
2022-10-05T09:20:57.688Z,77.60
2022-10-05T09:24:58.165Z,77.90
2022-10-05T09:29:14.264Z,78.70
2022-10-05T09:33:34.043Z,79.30
2022-10-05T09:37:30.158Z,80.40
2022-10-05T09:41:39.432Z,81.60
2022-10-05T09:45:31.592Z,83.30
2022-10-05T09:49:25.557Z,83.30
2022-10-05T09:54:03.750Z,84.20
2022-10-05T09:58:14.571Z,85.00
2022-10-05T10:02:28.403Z,85.60
2022-10-05T10:06:50.157Z,85.70
2022-10-05T10:11:02.401Z,86.30
2022-10-05T10:15:05.897Z,87.10
2022-10-05T10:19:25.540Z,87.10
2022-10-05T10:23:30.733Z,87.60
2022-10-05T10:27:51.641Z,87.70
2022-10-05T10:31:59.980Z,88.10
2022-10-05T10:36:13.399Z,87.90
2022-10-05T10:40:28.818Z,88.40
2022-10-05T10:44:32.404Z,88.60
2022-10-05T10:48:29.289Z,88.50
2022-10-05T10:52:17.372Z,88.90
2022-10-05T10:56:20.983Z,88.90
2022-10-05T11:00:27.579Z,89.10
2022-10-05T11:04:28.456Z,89.50
2022-10-05T11:08:31.104Z,89.60
2022-10-05T11:12:50.924Z,89.40
2022-10-05T11:16:56.690Z,88.70
2022-10-05T11:21:04.965Z,88.00
2022-10-05T11:25:20.803Z,87.30
2022-10-05T11:29:32.575Z,87.20
2022-10-05T11:33:56.135Z,87.40
2022-10-05T11:37:41.048Z,87.10
2022-10-05T11:41:36.969Z,87.00
2022-10-05T11:45:43.731Z,86.90
2022-10-05T11:49:28.549Z,86.60
2022-10-05T11:53:42.807Z,86.50
2022-10-05T11:57:44.887Z,86.70
2022-10-05T12:01:51.866Z,86.60
2022-10-05T12:05:36.611Z,86.70
2022-10-05T12:09:27.891Z,86.40
2022-10-05T12:13:36.941Z,86.40
2022-10-05T12:17:48.814Z,86.40
2022-10-05T12:22:00.400Z,86.30
2022-10-05T12:25:56.500Z,85.80
2022-10-05T12:29:54.385Z,86.30
2022-10-05T12:34:00.820Z,86.60
2022-10-05T12:38:03.459Z,86.00
2022-10-05T12:41:55.395Z,85.70
2022-10-05T12:45:54.116Z,86.00
2022-10-05T12:49:51.838Z,85.90
2022-10-05T12:53:36.702Z,85.50
2022-10-05T12:57:36.358Z,86.10
2022-10-05T13:01:27.157Z,85.60
2022-10-05T13:05:12.411Z,85.50
2022-10-05T13:09:08.784Z,85.40
2022-10-05T13:12:51.114Z,84.60
2022-10-05T13:16:52.516Z,84.40
2022-10-05T13:20:44.526Z,84.30
2022-10-05T13:24:38.559Z,84.70
2022-10-05T13:28:30.635Z,84.60
2022-10-05T13:32:23.359Z,84.50
2022-10-05T13:36:38.710Z,84.10
2022-10-05T13:40:33.983Z,83.80
2022-10-05T13:44:31.143Z,83.60
2022-10-05T13:48:51.871Z,83.00
2022-10-05T13:53:05.387Z,82.10
2022-10-05T13:56:56.106Z,81.80
2022-10-05T14:00:48.803Z,82.00
2022-10-05T14:04:54.764Z,81.70
2022-10-05T14:08:50.435Z,80.90
2022-10-05T14:12:43.120Z,80.70
2022-10-05T14:16:26.622Z,80.60
2022-10-05T14:20:31.990Z,80.80
2022-10-05T14:24:43.535Z,79.10
2022-10-05T14:28:40.069Z,78.20
2022-10-05T14:32:28.874Z,77.00
2022-10-05T14:36:55.903Z,78.00
2022-10-05T14:40:40.680Z,75.40
2022-10-05T14:48:17.531Z,75.30
2022-10-05T14:51:59.894Z,76.40
2022-10-05T14:56:12.656Z,76.00
2022-10-05T14:59:59.588Z,74.50
2022-10-05T15:03:48.962Z,75.60
2022-10-05T15:07:40.441Z,75.20
2022-10-05T15:11:52.658Z,74.70
2022-10-05T15:15:44.597Z,74.70
2022-10-05T15:19:55.933Z,75.00
2022-10-05T15:23:56.155Z,74.40
2022-10-05T15:27:58.616Z,75.00
2022-10-05T15:31:52.101Z,75.60
2022-10-05T15:36:21.498Z,70.60
2022-10-05T15:40:07.736Z,72.50
2022-10-05T15:44:00.978Z,73.90
2022-10-05T15:48:15.042Z,73.20
2022-10-05T15:52:03.438Z,71.50
2022-10-05T15:55:55.862Z,72.60
2022-10-05T15:59:58.266Z,71.90
2022-10-05T16:03:48.789Z,72.10
2022-10-05T16:08:02.856Z,72.70
2022-10-05T16:11:47.927Z,70.90
2022-10-05T16:16:01.109Z,72.00
2022-10-05T16:20:14.371Z,70.20
2022-10-05T16:24:10.896Z,70.10
2022-10-05T16:28:09.599Z,70.80
2022-10-05T16:32:10.410Z,69.70
2022-10-05T16:36:26.451Z,70.00
2022-10-05T16:40:28.501Z,69.60
2022-10-05T16:44:32.301Z,69.10
2022-10-05T16:48:29.059Z,67.70
2022-10-05T16:52:16.189Z,66.80
2022-10-05T16:56:11.703Z,67.40
2022-10-05T17:00:15.765Z,67.40
2022-10-05T17:04:03.952Z,67.20
2022-10-05T17:07:58.706Z,67.80
2022-10-05T17:11:46.839Z,67.30
2022-10-05T17:16:10.066Z,67.80
2022-10-05T17:20:23.746Z,67.30
2022-10-05T17:24:11.688Z,67.50
2022-10-05T17:28:37.051Z,68.30
2022-10-05T17:32:19.011Z,68.00
2022-10-05T17:36:09.172Z,69.30
2022-10-05T17:39:54.183Z,69.40
2022-10-05T17:43:36.304Z,69.50
2022-10-05T17:47:56.744Z,69.80
2022-10-05T17:51:57.262Z,69.40
2022-10-05T17:55:46.405Z,70.10
2022-10-05T17:59:46.436Z,69.90
2022-10-05T18:03:41.539Z,69.80
2022-10-05T18:07:24.783Z,70.10
2022-10-05T18:11:17.270Z,70.70
2022-10-05T18:15:14.405Z,70.60
2022-10-05T18:18:57.931Z,70.80
2022-10-05T18:22:39.880Z,70.80
2022-10-05T18:26:48.092Z,70.90
2022-10-05T18:31:04.832Z,69.50
2022-10-05T18:35:11.542Z,69.20
2022-10-05T18:39:29.097Z,69.20
2022-10-05T18:43:26.751Z,68.90
2022-10-05T18:47:30.489Z,68.50
2022-10-05T18:51:36.743Z,68.20
2022-10-05T18:55:33.963Z,68.30
2022-10-05T18:59:38.578Z,68.30
2022-10-05T19:03:42.245Z,68.10
2022-10-05T19:07:50.817Z,68.60
2022-10-05T19:11:43.515Z,69.00
2022-10-05T19:15:46.565Z,68.80
2022-10-05T19:19:33.591Z,69.40
2022-10-05T19:23:45.069Z,69.40
2022-10-05T19:27:44.594Z,68.30
2022-10-05T19:31:35.344Z,69.10
2022-10-05T19:35:23.495Z,69.60
2022-10-05T19:39:33.722Z,69.30
2022-10-05T19:43:24.751Z,69.00
2022-10-05T19:47:26.031Z,69.90
2022-10-05T19:51:59.286Z,70.20
2022-10-05T19:55:43.876Z,70.60
2022-10-05T19:59:31.154Z,70.70
2022-10-05T20:03:19.555Z,71.00
2022-10-05T20:07:02.500Z,71.60
2022-10-05T20:10:45.994Z,71.60
2022-10-05T20:14:33.444Z,71.80
2022-10-05T20:19:02.278Z,72.00
2022-10-05T20:22:46.624Z,73.20
2022-10-05T20:26:57.161Z,72.50
2022-10-05T20:30:39.085Z,73.30
2022-10-05T20:34:24.830Z,72.90
2022-10-05T20:38:09.877Z,73.20
2022-10-05T20:41:51.900Z,73.50
2022-10-05T20:45:33.942Z,73.70
2022-10-05T20:49:15.948Z,74.00
2022-10-05T20:52:58.261Z,74.30
2022-10-05T20:56:42.333Z,74.50
2022-10-05T21:00:24.463Z,74.80
2022-10-05T21:04:07.413Z,74.80
2022-10-05T21:07:49.420Z,74.90
2022-10-05T21:11:31.355Z,74.80
2022-10-05T21:15:13.261Z,74.90
2022-10-05T21:18:55.169Z,74.90
2022-10-05T21:22:37.005Z,75.00
2022-10-05T21:26:19.176Z,75.00
2022-10-05T21:30:01.621Z,75.10
2022-10-05T21:33:43.795Z,75.10
2022-10-05T21:37:25.801Z,75.20
2022-10-05T21:41:08.422Z,75.20
2022-10-05T21:44:50.316Z,75.40
2022-10-05T21:48:33.780Z,75.60
2022-10-05T21:52:15.676Z,75.60
2022-10-05T21:56:02.174Z,75.60
2022-10-05T21:59:45.228Z,75.70
2022-10-05T22:03:27.459Z,75.70
2022-10-05T22:07:19.871Z,75.80
2022-10-05T22:11:10.360Z,76.00
2022-10-05T22:14:52.416Z,76.00
2022-10-05T22:18:34.342Z,75.80
2022-10-05T22:22:17.029Z,75.80
2022-10-05T22:25:59.040Z,75.80
2022-10-05T22:29:41.764Z,75.90
2022-10-05T22:33:23.792Z,76.10
2022-10-05T22:37:07.120Z,76.30
2022-10-05T22:40:49.130Z,76.40
2022-10-05T22:44:31.385Z,76.60
2022-10-05T22:48:13.725Z,76.80
2022-10-05T22:51:55.678Z,77.00
2022-10-05T22:55:37.636Z,77.10
2022-10-05T22:59:19.578Z,77.30
2022-10-05T23:03:01.872Z,77.40
2022-10-05T23:06:44.048Z,77.40
2022-10-05T23:10:26.251Z,77.50
2022-10-05T23:14:08.469Z,77.60
2022-10-05T23:17:52.924Z,77.60
2022-10-05T23:21:34.891Z,77.40
2022-10-05T23:25:17.985Z,77.30
2022-10-05T23:29:00.106Z,77.30
2022-10-05T23:32:44.462Z,77.30
2022-10-05T23:36:31.587Z,77.40
2022-10-05T23:40:14.924Z,77.30
2022-10-05T23:43:56.986Z,77.10
2022-10-05T23:47:40.624Z,77.00
2022-10-05T23:51:22.557Z,77.10
2022-10-05T23:55:05.763Z,77.10
2022-10-05T23:58:47.763Z,77.10
